sensor_id;sensor_type;location;lat;lon;timestamp;P1;durP1;ratioP1;P2;durP2;ratioP2
38901;SDS011;24661;53.566;9.910;2022-10-20T00:00:26;6.67;;;1.70;;
38901;SDS011;24661;53.566;9.910;2022-10-20T00:02:51;6.90;;;1.67;;
38901;SDS011;24661;53.566;9.910;2022-10-20T00:05:17;3.77;;;1.70;;
38901;SDS011;24661;53.566;9.910;2022-10-20T00:07:43;3.47;;;2.27;;
38901;SDS011;24661;53.566;9.910;2022-10-20T00:10:08;3.13;;;1.70;;
38901;SDS011;24661;53.566;9.910;2022-10-20T00:12:34;2.10;;;1.50;;
38901;SDS011;24661;53.566;9.910;2022-10-20T00:14:59;3.20;;;1.70;;
38901;SDS011;24661;53.566;9.910;2022-10-20T00:17:25;2.50;;;1.83;;
38901;SDS011;24661;53.566;9.910;2022-10-20T00:19:51;1.77;;;1.50;;
38901;SDS011;24661;53.566;9.910;2022-10-20T00:22:17;3.63;;;1.40;;
38901;SDS011;24661;53.566;9.910;2022-10-20T00:24:43;3.00;;;1.73;;
38901;SDS011;24661;53.566;9.910;2022-10-20T00:27:08;2.23;;;1.37;;
38901;SDS011;24661;53.566;9.910;2022-10-20T00:29:34;4.73;;;1.60;;
38901;SDS011;24661;53.566;9.910;2022-10-20T00:31:59;4.23;;;1.50;;
38901;SDS011;24661;53.566;9.910;2022-10-20T00:34:25;5.17;;;1.50;;
38901;SDS011;24661;53.566;9.910;2022-10-20T00:36:51;3.40;;;1.67;;
38901;SDS011;24661;53.566;9.910;2022-10-20T00:39:16;6.80;;;1.93;;
38901;SDS011;24661;53.566;9.910;2022-10-20T00:41:42;2.60;;;1.50;;
38901;SDS011;24661;53.566;9.910;2022-10-20T00:47:11;4.17;;;1.47;;
38901;SDS011;24661;53.566;9.910;2022-10-20T00:49:40;5.70;;;2.07;;
38901;SDS011;24661;53.566;9.910;2022-10-20T00:52:06;2.13;;;1.40;;
38901;SDS011;24661;53.566;9.910;2022-10-20T00:54:33;1.57;;;1.13;;
38901;SDS011;24661;53.566;9.910;2022-10-20T00:56:59;3.03;;;1.43;;
38901;SDS011;24661;53.566;9.910;2022-10-20T00:59:25;3.83;;;1.50;;
38901;SDS011;24661;53.566;9.910;2022-10-20T01:01:54;5.70;;;1.57;;
38901;SDS011;24661;53.566;9.910;2022-10-20T01:04:20;2.77;;;1.27;;
38901;SDS011;24661;53.566;9.910;2022-10-20T01:06:46;4.53;;;1.87;;
38901;SDS011;24661;53.566;9.910;2022-10-20T01:09:12;4.30;;;1.83;;
38901;SDS011;24661;53.566;9.910;2022-10-20T01:20:33;4.30;;;1.60;;
38901;SDS011;24661;53.566;9.910;2022-10-20T01:34:55;5.13;;;1.87;;
38901;SDS011;24661;53.566;9.910;2022-10-20T01:43:17;3.83;;;2.10;;
38901;SDS011;24661;53.566;9.910;2022-10-20T01:45:45;3.27;;;1.80;;
38901;SDS011;24661;53.566;9.910;2022-10-20T01:48:13;4.53;;;1.63;;
38901;SDS011;24661;53.566;9.910;2022-10-20T01:50:41;9.10;;;2.40;;
38901;SDS011;24661;53.566;9.910;2022-10-20T01:53:07;4.63;;;1.50;;
38901;SDS011;24661;53.566;9.910;2022-10-20T01:55:33;2.53;;;1.53;;
38901;SDS011;24661;53.566;9.910;2022-10-20T01:58:06;4.30;;;2.03;;
38901;SDS011;24661;53.566;9.910;2022-10-20T02:00:49;3.90;;;1.40;;
38901;SDS011;24661;53.566;9.910;2022-10-20T02:11:11;5.70;;;2.33;;
38901;SDS011;24661;53.566;9.910;2022-10-20T02:13:49;1.87;;;1.63;;
38901;SDS011;24661;53.566;9.910;2022-10-20T02:16:19;9.00;;;2.27;;
38901;SDS011;24661;53.566;9.910;2022-10-20T02:18:52;3.03;;;1.63;;
38901;SDS011;24661;53.566;9.910;2022-10-20T02:21:18;2.63;;;1.97;;
38901;SDS011;24661;53.566;9.910;2022-10-20T02:23:44;2.73;;;1.80;;
38901;SDS011;24661;53.566;9.910;2022-10-20T02:26:13;5.77;;;1.60;;
38901;SDS011;24661;53.566;9.910;2022-10-20T02:28:42;4.27;;;2.03;;
38901;SDS011;24661;53.566;9.910;2022-10-20T02:31:12;5.77;;;2.00;;
38901;SDS011;24661;53.566;9.910;2022-10-20T02:33:38;6.00;;;2.33;;
38901;SDS011;24661;53.566;9.910;2022-10-20T02:36:05;3.20;;;2.00;;
38901;SDS011;24661;53.566;9.910;2022-10-20T02:38:39;3.07;;;1.83;;
38901;SDS011;24661;53.566;9.910;2022-10-20T02:41:05;6.47;;;2.43;;
38901;SDS011;24661;53.566;9.910;2022-10-20T02:43:30;4.53;;;1.90;;
38901;SDS011;24661;53.566;9.910;2022-10-20T02:45:56;3.53;;;1.50;;
38901;SDS011;24661;53.566;9.910;2022-10-20T02:48:22;7.47;;;1.80;;
38901;SDS011;24661;53.566;9.910;2022-10-20T02:50:47;3.90;;;2.07;;
38901;SDS011;24661;53.566;9.910;2022-10-20T02:53:13;3.53;;;2.30;;
38901;SDS011;24661;53.566;9.910;2022-10-20T02:55:38;3.20;;;2.13;;
38901;SDS011;24661;53.566;9.910;2022-10-20T02:58:06;4.93;;;2.00;;
38901;SDS011;24661;53.566;9.910;2022-10-20T03:00:31;4.80;;;1.90;;
38901;SDS011;24661;53.566;9.910;2022-10-20T03:02:57;3.30;;;2.10;;
38901;SDS011;24661;53.566;9.910;2022-10-20T03:05:22;6.57;;;1.73;;
38901;SDS011;24661;53.566;9.910;2022-10-20T03:07:48;3.03;;;2.17;;
38901;SDS011;24661;53.566;9.910;2022-10-20T03:10:14;5.93;;;2.40;;
38901;SDS011;24661;53.566;9.910;2022-10-20T03:12:40;4.43;;;2.27;;
38901;SDS011;24661;53.566;9.910;2022-10-20T03:15:06;2.17;;;1.90;;
38901;SDS011;24661;53.566;9.910;2022-10-20T03:17:31;5.67;;;2.10;;
38901;SDS011;24661;53.566;9.910;2022-10-20T03:19:57;3.20;;;2.00;;
38901;SDS011;24661;53.566;9.910;2022-10-20T03:22:22;5.80;;;2.20;;
38901;SDS011;24661;53.566;9.910;2022-10-20T03:24:48;9.37;;;2.33;;
38901;SDS011;24661;53.566;9.910;2022-10-20T03:27:13;6.10;;;2.80;;
38901;SDS011;24661;53.566;9.910;2022-10-20T03:29:39;3.40;;;2.20;;
38901;SDS011;24661;53.566;9.910;2022-10-20T03:32:05;2.53;;;1.80;;
38901;SDS011;24661;53.566;9.910;2022-10-20T03:34:30;6.27;;;2.33;;
38901;SDS011;24661;53.566;9.910;2022-10-20T03:36:56;3.97;;;2.47;;
38901;SDS011;24661;53.566;9.910;2022-10-20T03:39:21;5.67;;;2.30;;
38901;SDS011;24661;53.566;9.910;2022-10-20T03:41:47;4.97;;;2.20;;
38901;SDS011;24661;53.566;9.910;2022-10-20T03:44:13;5.77;;;2.37;;
38901;SDS011;24661;53.566;9.910;2022-10-20T03:46:38;6.37;;;2.90;;
38901;SDS011;24661;53.566;9.910;2022-10-20T03:49:04;4.57;;;2.33;;
38901;SDS011;24661;53.566;9.910;2022-10-20T03:51:29;3.53;;;2.00;;
38901;SDS011;24661;53.566;9.910;2022-10-20T03:53:55;4.03;;;2.40;;
38901;SDS011;24661;53.566;9.910;2022-10-20T03:56:20;3.53;;;2.00;;
38901;SDS011;24661;53.566;9.910;2022-10-20T03:58:46;4.63;;;2.40;;
38901;SDS011;24661;53.566;9.910;2022-10-20T04:01:13;6.70;;;2.33;;
38901;SDS011;24661;53.566;9.910;2022-10-20T04:03:40;6.40;;;3.97;;
38901;SDS011;24661;53.566;9.910;2022-10-20T04:06:07;6.53;;;2.60;;
38901;SDS011;24661;53.566;9.910;2022-10-20T04:08:33;5.43;;;2.00;;
38901;SDS011;24661;53.566;9.910;2022-10-20T04:10:59;3.67;;;2.13;;
38901;SDS011;24661;53.566;9.910;2022-10-20T04:13:24;3.50;;;2.40;;
38901;SDS011;24661;53.566;9.910;2022-10-20T04:15:50;5.93;;;2.37;;
38901;SDS011;24661;53.566;9.910;2022-10-20T04:18:15;5.57;;;2.80;;
38901;SDS011;24661;53.566;9.910;2022-10-20T04:20:41;5.27;;;2.53;;
38901;SDS011;24661;53.566;9.910;2022-10-20T04:23:06;6.83;;;2.73;;
38901;SDS011;24661;53.566;9.910;2022-10-20T04:25:32;2.70;;;2.10;;
38901;SDS011;24661;53.566;9.910;2022-10-20T04:27:58;4.90;;;2.00;;
38901;SDS011;24661;53.566;9.910;2022-10-20T04:30:24;3.60;;;2.30;;
38901;SDS011;24661;53.566;9.910;2022-10-20T04:32:49;6.60;;;2.43;;
38901;SDS011;24661;53.566;9.910;2022-10-20T04:35:15;7.23;;;2.70;;
38901;SDS011;24661;53.566;9.910;2022-10-20T04:37:41;5.80;;;2.73;;
38901;SDS011;24661;53.566;9.910;2022-10-20T04:40:07;3.93;;;2.60;;
38901;SDS011;24661;53.566;9.910;2022-10-20T04:42:33;5.60;;;2.93;;
38901;SDS011;24661;53.566;9.910;2022-10-20T04:44:58;6.00;;;2.97;;
38901;SDS011;24661;53.566;9.910;2022-10-20T04:47:24;8.80;;;2.83;;
38901;SDS011;24661;53.566;9.910;2022-10-20T04:49:49;6.30;;;2.70;;
38901;SDS011;24661;53.566;9.910;2022-10-20T04:52:15;8.13;;;3.07;;
38901;SDS011;24661;53.566;9.910;2022-10-20T04:54:41;5.83;;;2.80;;
38901;SDS011;24661;53.566;9.910;2022-10-20T04:57:07;4.53;;;2.93;;
38901;SDS011;24661;53.566;9.910;2022-10-20T04:59:34;3.73;;;2.87;;
38901;SDS011;24661;53.566;9.910;2022-10-20T05:02:00;4.07;;;2.57;;
38901;SDS011;24661;53.566;9.910;2022-10-20T05:04:26;6.40;;;3.37;;
38901;SDS011;24661;53.566;9.910;2022-10-20T05:06:52;4.70;;;3.40;;
38901;SDS011;24661;53.566;9.910;2022-10-20T05:09:17;6.23;;;2.83;;
38901;SDS011;24661;53.566;9.910;2022-10-20T05:11:43;7.30;;;3.20;;
38901;SDS011;24661;53.566;9.910;2022-10-20T05:14:08;10.20;;;3.23;;
38901;SDS011;24661;53.566;9.910;2022-10-20T05:16:34;6.40;;;3.23;;
38901;SDS011;24661;53.566;9.910;2022-10-20T05:19:00;6.70;;;3.27;;
38901;SDS011;24661;53.566;9.910;2022-10-20T05:21:27;6.27;;;3.37;;
38901;SDS011;24661;53.566;9.910;2022-10-20T05:23:56;6.73;;;3.40;;
38901;SDS011;24661;53.566;9.910;2022-10-20T05:26:23;4.90;;;3.10;;
38901;SDS011;24661;53.566;9.910;2022-10-20T05:28:50;9.10;;;3.90;;
38901;SDS011;24661;53.566;9.910;2022-10-20T05:31:17;8.17;;;3.40;;
38901;SDS011;24661;53.566;9.910;2022-10-20T05:33:46;9.90;;;3.60;;
38901;SDS011;24661;53.566;9.910;2022-10-20T05:36:17;7.50;;;3.03;;
38901;SDS011;24661;53.566;9.910;2022-10-20T05:38:44;8.50;;;3.73;;
38901;SDS011;24661;53.566;9.910;2022-10-20T05:41:14;5.87;;;2.73;;
38901;SDS011;24661;53.566;9.910;2022-10-20T05:43:42;8.00;;;2.90;;
38901;SDS011;24661;53.566;9.910;2022-10-20T05:46:15;7.97;;;2.97;;
38901;SDS011;24661;53.566;9.910;2022-10-20T05:48:41;4.77;;;3.07;;
38901;SDS011;24661;53.566;9.910;2022-10-20T05:51:11;8.13;;;3.27;;
38901;SDS011;24661;53.566;9.910;2022-10-20T05:53:38;6.00;;;2.67;;
38901;SDS011;24661;53.566;9.910;2022-10-20T05:56:08;7.13;;;3.20;;
38901;SDS011;24661;53.566;9.910;2022-10-20T05:58:36;5.93;;;3.03;;
38901;SDS011;24661;53.566;9.910;2022-10-20T06:01:06;4.57;;;2.63;;
38901;SDS011;24661;53.566;9.910;2022-10-20T06:03:34;10.67;;;3.60;;
38901;SDS011;24661;53.566;9.910;2022-10-20T06:06:00;7.80;;;3.07;;
38901;SDS011;24661;53.566;9.910;2022-10-20T06:08:30;4.83;;;2.83;;
38901;SDS011;24661;53.566;9.910;2022-10-20T06:11:03;5.50;;;2.90;;
38901;SDS011;24661;53.566;9.910;2022-10-20T06:13:31;7.27;;;3.20;;
38901;SDS011;24661;53.566;9.910;2022-10-20T06:16:01;7.53;;;2.90;;
38901;SDS011;24661;53.566;9.910;2022-10-20T06:18:27;8.70;;;3.37;;
38901;SDS011;24661;53.566;9.910;2022-10-20T06:21:00;6.07;;;2.90;;
38901;SDS011;24661;53.566;9.910;2022-10-20T06:23:26;6.87;;;3.27;;
38901;SDS011;24661;53.566;9.910;2022-10-20T06:25:53;7.10;;;3.10;;
38901;SDS011;24661;53.566;9.910;2022-10-20T06:28:19;5.97;;;3.20;;
38901;SDS011;24661;53.566;9.910;2022-10-20T06:30:44;6.57;;;3.00;;
38901;SDS011;24661;53.566;9.910;2022-10-20T06:33:11;6.23;;;3.30;;
38901;SDS011;24661;53.566;9.910;2022-10-20T06:35:38;6.40;;;3.47;;
38901;SDS011;24661;53.566;9.910;2022-10-20T06:38:04;5.63;;;3.20;;
38901;SDS011;24661;53.566;9.910;2022-10-20T06:40:30;8.07;;;3.53;;
38901;SDS011;24661;53.566;9.910;2022-10-20T06:42:55;6.23;;;3.20;;
38901;SDS011;24661;53.566;9.910;2022-10-20T06:45:21;7.50;;;3.93;;
38901;SDS011;24661;53.566;9.910;2022-10-20T06:47:46;9.53;;;4.07;;
38901;SDS011;24661;53.566;9.910;2022-10-20T06:50:12;8.27;;;4.17;;
38901;SDS011;24661;53.566;9.910;2022-10-20T06:52:37;5.03;;;3.53;;
38901;SDS011;24661;53.566;9.910;2022-10-20T06:55:03;8.87;;;4.10;;
38901;SDS011;24661;53.566;9.910;2022-10-20T06:57:32;11.20;;;3.93;;
38901;SDS011;24661;53.566;9.910;2022-10-20T06:59:57;6.07;;;3.87;;
38901;SDS011;24661;53.566;9.910;2022-10-20T07:02:23;6.37;;;4.07;;
38901;SDS011;24661;53.566;9.910;2022-10-20T07:04:49;7.30;;;4.07;;
38901;SDS011;24661;53.566;9.910;2022-10-20T07:07:14;11.80;;;3.90;;
38901;SDS011;24661;53.566;9.910;2022-10-20T07:09:40;14.83;;;4.40;;
38901;SDS011;24661;53.566;9.910;2022-10-20T07:12:05;5.67;;;3.40;;
38901;SDS011;24661;53.566;9.910;2022-10-20T07:14:31;9.50;;;4.03;;
38901;SDS011;24661;53.566;9.910;2022-10-20T07:16:57;9.13;;;4.17;;
38901;SDS011;24661;53.566;9.910;2022-10-20T07:19:24;9.00;;;4.40;;
38901;SDS011;24661;53.566;9.910;2022-10-20T07:21:49;6.57;;;3.43;;
38901;SDS011;24661;53.566;9.910;2022-10-20T07:24:15;8.20;;;3.73;;
38901;SDS011;24661;53.566;9.910;2022-10-20T07:26:41;10.93;;;3.60;;
38901;SDS011;24661;53.566;9.910;2022-10-20T07:29:08;6.93;;;3.30;;
38901;SDS011;24661;53.566;9.910;2022-10-20T07:31:35;5.13;;;3.57;;
38901;SDS011;24661;53.566;9.910;2022-10-20T07:34:02;7.17;;;3.33;;
38901;SDS011;24661;53.566;9.910;2022-10-20T07:36:32;7.63;;;3.90;;
38901;SDS011;24661;53.566;9.910;2022-10-20T07:38:59;4.80;;;3.40;;
38901;SDS011;24661;53.566;9.910;2022-10-20T07:41:28;5.37;;;3.00;;
38901;SDS011;24661;53.566;9.910;2022-10-20T07:43:54;6.73;;;3.70;;
38901;SDS011;24661;53.566;9.910;2022-10-20T07:46:20;5.97;;;3.87;;
38901;SDS011;24661;53.566;9.910;2022-10-20T07:48:46;6.63;;;3.30;;
38901;SDS011;24661;53.566;9.910;2022-10-20T07:51:16;9.37;;;3.23;;
38901;SDS011;24661;53.566;9.910;2022-10-20T07:53:45;5.33;;;3.60;;
38901;SDS011;24661;53.566;9.910;2022-10-20T07:56:14;7.60;;;3.43;;
38901;SDS011;24661;53.566;9.910;2022-10-20T07:58:40;6.30;;;3.07;;
38901;SDS011;24661;53.566;9.910;2022-10-20T08:01:06;5.13;;;3.00;;
38901;SDS011;24661;53.566;9.910;2022-10-20T08:03:33;10.13;;;3.40;;
38901;SDS011;24661;53.566;9.910;2022-10-20T08:05:59;8.23;;;3.27;;
38901;SDS011;24661;53.566;9.910;2022-10-20T08:08:25;5.27;;;3.43;;
38901;SDS011;24661;53.566;9.910;2022-10-20T08:10:51;5.87;;;3.27;;
38901;SDS011;24661;53.566;9.910;2022-10-20T08:13:16;6.57;;;3.47;;
38901;SDS011;24661;53.566;9.910;2022-10-20T08:15:42;4.80;;;3.20;;
38901;SDS011;24661;53.566;9.910;2022-10-20T08:18:07;12.37;;;3.33;;
38901;SDS011;24661;53.566;9.910;2022-10-20T08:20:33;7.87;;;4.10;;
38901;SDS011;24661;53.566;9.910;2022-10-20T08:22:59;6.43;;;2.80;;
38901;SDS011;24661;53.566;9.910;2022-10-20T08:25:24;12.03;;;3.10;;
38901;SDS011;24661;53.566;9.910;2022-10-20T08:27:50;10.77;;;3.97;;
38901;SDS011;24661;53.566;9.910;2022-10-20T08:30:15;6.20;;;3.17;;
38901;SDS011;24661;53.566;9.910;2022-10-20T08:32:41;8.90;;;2.90;;
38901;SDS011;24661;53.566;9.910;2022-10-20T08:35:08;7.37;;;3.07;;
38901;SDS011;24661;53.566;9.910;2022-10-20T08:37:34;9.97;;;3.37;;
38901;SDS011;24661;53.566;9.910;2022-10-20T08:40:00;8.60;;;3.10;;
38901;SDS011;24661;53.566;9.910;2022-10-20T08:42:27;5.07;;;2.90;;
38901;SDS011;24661;53.566;9.910;2022-10-20T08:44:54;5.23;;;2.27;;
38901;SDS011;24661;53.566;9.910;2022-10-20T08:47:25;6.40;;;2.77;;
38901;SDS011;24661;53.566;9.910;2022-10-20T08:49:54;7.90;;;2.30;;
38901;SDS011;24661;53.566;9.910;2022-10-20T08:52:22;5.63;;;3.17;;
38901;SDS011;24661;53.566;9.910;2022-10-20T08:54:50;8.40;;;2.80;;
38901;SDS011;24661;53.566;9.910;2022-10-20T08:57:29;4.60;;;2.73;;
38901;SDS011;24661;53.566;9.910;2022-10-20T09:00:16;6.83;;;2.83;;
38901;SDS011;24661;53.566;9.910;2022-10-20T09:02:45;6.47;;;2.97;;
38901;SDS011;24661;53.566;9.910;2022-10-20T09:05:12;8.47;;;2.70;;
38901;SDS011;24661;53.566;9.910;2022-10-20T09:07:40;6.10;;;3.50;;
38901;SDS011;24661;53.566;9.910;2022-10-20T09:10:12;7.47;;;2.50;;
38901;SDS011;24661;53.566;9.910;2022-10-20T09:12:48;4.30;;;2.20;;
38901;SDS011;24661;53.566;9.910;2022-10-20T09:15:15;5.43;;;2.53;;
38901;SDS011;24661;53.566;9.910;2022-10-20T09:17:47;5.07;;;2.57;;
38901;SDS011;24661;53.566;9.910;2022-10-20T09:20:23;7.23;;;3.17;;
38901;SDS011;24661;53.566;9.910;2022-10-20T09:22:52;5.73;;;2.53;;
38901;SDS011;24661;53.566;9.910;2022-10-20T09:25:19;9.63;;;2.80;;
38901;SDS011;24661;53.566;9.910;2022-10-20T09:27:48;5.63;;;2.30;;
38901;SDS011;24661;53.566;9.910;2022-10-20T09:30:16;8.20;;;2.90;;
38901;SDS011;24661;53.566;9.910;2022-10-20T09:32:44;7.83;;;2.57;;
38901;SDS011;24661;53.566;9.910;2022-10-20T09:37:43;4.37;;;2.90;;
38901;SDS011;24661;53.566;9.910;2022-10-20T09:40:32;5.67;;;2.83;;
38901;SDS011;24661;53.566;9.910;2022-10-20T09:43:05;7.63;;;2.87;;
38901;SDS011;24661;53.566;9.910;2022-10-20T09:45:34;4.63;;;2.10;;
38901;SDS011;24661;53.566;9.910;2022-10-20T09:48:19;4.70;;;2.47;;
38901;SDS011;24661;53.566;9.910;2022-10-20T09:50:55;4.03;;;2.80;;
38901;SDS011;24661;53.566;9.910;2022-10-20T09:53:24;8.17;;;2.80;;
38901;SDS011;24661;53.566;9.910;2022-10-20T09:55:53;5.23;;;2.70;;
38901;SDS011;24661;53.566;9.910;2022-10-20T09:58:32;3.43;;;2.53;;
38901;SDS011;24661;53.566;9.910;2022-10-20T10:01:03;4.63;;;2.33;;
38901;SDS011;24661;53.566;9.910;2022-10-20T10:03:58;4.07;;;2.40;;
38901;SDS011;24661;53.566;9.910;2022-10-20T10:12:05;5.57;;;2.77;;
38901;SDS011;24661;53.566;9.910;2022-10-20T10:17:35;4.23;;;2.20;;
38901;SDS011;24661;53.566;9.910;2022-10-20T10:20:45;3.17;;;2.77;;
38901;SDS011;24661;53.566;9.910;2022-10-20T10:23:15;6.00;;;2.60;;
38901;SDS011;24661;53.566;9.910;2022-10-20T10:25:48;4.87;;;2.47;;
38901;SDS011;24661;53.566;9.910;2022-10-20T10:28:28;11.47;;;2.77;;
38901;SDS011;24661;53.566;9.910;2022-10-20T10:34:39;4.17;;;2.30;;
38901;SDS011;24661;53.566;9.910;2022-10-20T10:36:37;5.87;;;2.53;;
38901;SDS011;24661;53.566;9.910;2022-10-20T10:39:03;6.07;;;3.10;;
38901;SDS011;24661;53.566;9.910;2022-10-20T10:44:13;7.13;;;2.50;;
38901;SDS011;24661;53.566;9.910;2022-10-20T10:52:29;10.57;;;3.07;;
38901;SDS011;24661;53.566;9.910;2022-10-20T10:55:05;7.17;;;2.70;;
38901;SDS011;24661;53.566;9.910;2022-10-20T10:58:19;3.27;;;2.40;;
38901;SDS011;24661;53.566;9.910;2022-10-20T11:03:15;3.73;;;2.47;;
38901;SDS011;24661;53.566;9.910;2022-10-20T11:19:57;6.50;;;2.60;;
38901;SDS011;24661;53.566;9.910;2022-10-20T11:25:53;2.77;;;2.40;;
38901;SDS011;24661;53.566;9.910;2022-10-20T11:28:46;3.77;;;2.40;;
38901;SDS011;24661;53.566;9.910;2022-10-20T11:34:03;7.30;;;3.60;;
38901;SDS011;24661;53.566;9.910;2022-10-20T11:36:31;6.23;;;3.60;;
38901;SDS011;24661;53.566;9.910;2022-10-20T11:39:02;5.57;;;3.20;;
38901;SDS011;24661;53.566;9.910;2022-10-20T11:44:32;9.43;;;3.60;;
38901;SDS011;24661;53.566;9.910;2022-10-20T11:47:08;5.17;;;3.43;;
38901;SDS011;24661;53.566;9.910;2022-10-20T11:49:37;12.93;;;3.33;;
38901;SDS011;24661;53.566;9.910;2022-10-20T11:57:15;6.80;;;3.07;;
38901;SDS011;24661;53.566;9.910;2022-10-20T11:59:52;4.33;;;2.77;;
38901;SDS011;24661;53.566;9.910;2022-10-20T12:19:24;8.67;;;3.63;;
38901;SDS011;24661;53.566;9.910;2022-10-20T12:21:55;5.17;;;3.80;;
38901;SDS011;24661;53.566;9.910;2022-10-20T12:39:48;6.63;;;3.77;;
38901;SDS011;24661;53.566;9.910;2022-10-20T12:42:22;6.00;;;3.47;;
38901;SDS011;24661;53.566;9.910;2022-10-20T12:44:52;4.40;;;3.57;;
38901;SDS011;24661;53.566;9.910;2022-10-20T12:47:22;5.77;;;3.90;;
38901;SDS011;24661;53.566;9.910;2022-10-20T12:53:00;5.43;;;3.33;;
38901;SDS011;24661;53.566;9.910;2022-10-20T12:55:40;4.70;;;3.23;;
38901;SDS011;24661;53.566;9.910;2022-10-20T13:05:55;4.10;;;3.57;;
38901;SDS011;24661;53.566;9.910;2022-10-20T13:08:25;5.83;;;3.57;;
38901;SDS011;24661;53.566;9.910;2022-10-20T13:11:31;3.90;;;3.00;;
38901;SDS011;24661;53.566;9.910;2022-10-20T13:13:57;8.03;;;3.27;;
38901;SDS011;24661;53.566;9.910;2022-10-20T13:16:31;4.60;;;3.63;;
38901;SDS011;24661;53.566;9.910;2022-10-20T13:18:58;8.10;;;3.87;;
38901;SDS011;24661;53.566;9.910;2022-10-20T13:21:26;4.30;;;3.77;;
38901;SDS011;24661;53.566;9.910;2022-10-20T13:24:11;9.27;;;4.10;;
38901;SDS011;24661;53.566;9.910;2022-10-20T13:29:50;8.37;;;3.90;;
38901;SDS011;24661;53.566;9.910;2022-10-20T13:34:50;7.17;;;3.60;;
38901;SDS011;24661;53.566;9.910;2022-10-20T13:43:47;7.83;;;3.83;;
38901;SDS011;24661;53.566;9.910;2022-10-20T13:46:01;8.03;;;3.60;;
38901;SDS011;24661;53.566;9.910;2022-10-20T13:48:53;5.13;;;4.00;;
38901;SDS011;24661;53.566;9.910;2022-10-20T13:51:24;8.97;;;3.30;;
38901;SDS011;24661;53.566;9.910;2022-10-20T13:53:57;4.20;;;3.13;;
38901;SDS011;24661;53.566;9.910;2022-10-20T13:56:48;4.80;;;2.93;;
38901;SDS011;24661;53.566;9.910;2022-10-20T14:01:46;5.23;;;2.97;;
38901;SDS011;24661;53.566;9.910;2022-10-20T14:04:24;3.97;;;3.10;;
38901;SDS011;24661;53.566;9.910;2022-10-20T14:07:02;7.63;;;3.37;;
38901;SDS011;24661;53.566;9.910;2022-10-20T14:09:37;3.57;;;2.80;;
38901;SDS011;24661;53.566;9.910;2022-10-20T14:12:05;6.47;;;2.90;;
38901;SDS011;24661;53.566;9.910;2022-10-20T14:14:35;5.70;;;3.00;;
38901;SDS011;24661;53.566;9.910;2022-10-20T14:17:06;5.70;;;3.20;;
38901;SDS011;24661;53.566;9.910;2022-10-20T14:19:33;5.87;;;2.77;;
38901;SDS011;24661;53.566;9.910;2022-10-20T14:24:54;6.50;;;2.77;;
38901;SDS011;24661;53.566;9.910;2022-10-20T14:27:30;7.00;;;3.10;;
38901;SDS011;24661;53.566;9.910;2022-10-20T14:29:58;3.97;;;2.53;;
38901;SDS011;24661;53.566;9.910;2022-10-20T14:32:29;7.50;;;3.00;;
38901;SDS011;24661;53.566;9.910;2022-10-20T14:34:57;4.83;;;2.87;;
38901;SDS011;24661;53.566;9.910;2022-10-20T14:37:38;4.67;;;2.70;;
38901;SDS011;24661;53.566;9.910;2022-10-20T14:40:18;4.27;;;3.03;;
38901;SDS011;24661;53.566;9.910;2022-10-20T14:42:55;3.03;;;2.63;;
38901;SDS011;24661;53.566;9.910;2022-10-20T14:45:30;5.23;;;2.57;;
38901;SDS011;24661;53.566;9.910;2022-10-20T14:47:56;4.97;;;2.97;;
38901;SDS011;24661;53.566;9.910;2022-10-20T14:52:54;4.07;;;3.00;;
38901;SDS011;24661;53.566;9.910;2022-10-20T14:57:59;4.70;;;3.00;;
38901;SDS011;24661;53.566;9.910;2022-10-20T15:00:32;6.27;;;3.50;;
38901;SDS011;24661;53.566;9.910;2022-10-20T15:03:00;6.90;;;3.70;;
38901;SDS011;24661;53.566;9.910;2022-10-20T15:08:07;14.27;;;3.47;;
38901;SDS011;24661;53.566;9.910;2022-10-20T15:10:41;5.43;;;3.57;;
38901;SDS011;24661;53.566;9.910;2022-10-20T15:13:16;6.53;;;4.20;;
38901;SDS011;24661;53.566;9.910;2022-10-20T15:15:48;6.43;;;3.60;;
38901;SDS011;24661;53.566;9.910;2022-10-20T15:18:15;9.10;;;3.60;;
38901;SDS011;24661;53.566;9.910;2022-10-20T15:20:43;4.90;;;3.67;;
38901;SDS011;24661;53.566;9.910;2022-10-20T15:26:05;6.80;;;3.57;;
38901;SDS011;24661;53.566;9.910;2022-10-20T15:28:46;8.70;;;3.60;;
38901;SDS011;24661;53.566;9.910;2022-10-20T15:31:20;6.20;;;4.10;;
38901;SDS011;24661;53.566;9.910;2022-10-20T15:33:48;10.23;;;4.57;;
38901;SDS011;24661;53.566;9.910;2022-10-20T15:36:17;7.87;;;3.97;;
38901;SDS011;24661;53.566;9.910;2022-10-20T15:38:45;10.90;;;5.03;;
38901;SDS011;24661;53.566;9.910;2022-10-20T15:41:15;6.23;;;3.97;;
38901;SDS011;24661;53.566;9.910;2022-10-20T15:43:46;4.93;;;3.83;;
38901;SDS011;24661;53.566;9.910;2022-10-20T15:46:12;4.97;;;3.70;;
38901;SDS011;24661;53.566;9.910;2022-10-20T15:48:38;9.27;;;4.57;;
38901;SDS011;24661;53.566;9.910;2022-10-20T15:51:05;8.30;;;4.60;;
38901;SDS011;24661;53.566;9.910;2022-10-20T15:53:43;5.03;;;4.03;;
38901;SDS011;24661;53.566;9.910;2022-10-20T15:56:13;8.43;;;4.20;;
38901;SDS011;24661;53.566;9.910;2022-10-20T15:58:40;5.90;;;3.80;;
38901;SDS011;24661;53.566;9.910;2022-10-20T16:01:05;9.80;;;4.43;;
38901;SDS011;24661;53.566;9.910;2022-10-20T16:03:31;8.47;;;4.47;;
38901;SDS011;24661;53.566;9.910;2022-10-20T16:05:56;4.50;;;4.10;;
38901;SDS011;24661;53.566;9.910;2022-10-20T16:08:22;7.60;;;4.70;;
38901;SDS011;24661;53.566;9.910;2022-10-20T16:10:48;5.17;;;4.17;;
38901;SDS011;24661;53.566;9.910;2022-10-20T16:13:13;9.40;;;5.10;;
38901;SDS011;24661;53.566;9.910;2022-10-20T16:15:42;6.93;;;4.67;;
38901;SDS011;24661;53.566;9.910;2022-10-20T16:18:07;7.83;;;4.27;;
38901;SDS011;24661;53.566;9.910;2022-10-20T16:20:34;7.57;;;5.00;;
38901;SDS011;24661;53.566;9.910;2022-10-20T16:23:00;8.37;;;5.17;;
38901;SDS011;24661;53.566;9.910;2022-10-20T16:25:25;7.77;;;5.10;;
38901;SDS011;24661;53.566;9.910;2022-10-20T16:27:51;8.97;;;5.20;;
38901;SDS011;24661;53.566;9.910;2022-10-20T16:30:17;4.93;;;4.43;;
38901;SDS011;24661;53.566;9.910;2022-10-20T16:32:43;6.83;;;4.67;;
38901;SDS011;24661;53.566;9.910;2022-10-20T16:35:09;12.30;;;5.03;;
38901;SDS011;24661;53.566;9.910;2022-10-20T16:37:34;8.03;;;4.93;;
38901;SDS011;24661;53.566;9.910;2022-10-20T16:40:00;6.77;;;5.37;;
38901;SDS011;24661;53.566;9.910;2022-10-20T16:42:26;8.60;;;4.80;;
38901;SDS011;24661;53.566;9.910;2022-10-20T16:44:54;7.70;;;5.37;;
38901;SDS011;24661;53.566;9.910;2022-10-20T16:47:20;12.57;;;5.27;;
38901;SDS011;24661;53.566;9.910;2022-10-20T16:49:45;9.67;;;4.73;;
38901;SDS011;24661;53.566;9.910;2022-10-20T16:52:11;9.37;;;5.47;;
38901;SDS011;24661;53.566;9.910;2022-10-20T16:54:36;9.67;;;4.73;;
38901;SDS011;24661;53.566;9.910;2022-10-20T16:57:02;8.07;;;5.00;;
38901;SDS011;24661;53.566;9.910;2022-10-20T16:59:30;6.63;;;4.83;;
38901;SDS011;24661;53.566;9.910;2022-10-20T17:01:56;8.00;;;4.97;;
38901;SDS011;24661;53.566;9.910;2022-10-20T17:04:21;6.73;;;4.93;;
38901;SDS011;24661;53.566;9.910;2022-10-20T17:06:48;10.30;;;4.80;;
38901;SDS011;24661;53.566;9.910;2022-10-20T17:09:14;9.00;;;6.17;;
38901;SDS011;24661;53.566;9.910;2022-10-20T17:11:39;11.43;;;5.90;;
38901;SDS011;24661;53.566;9.910;2022-10-20T17:14:05;10.87;;;5.77;;
38901;SDS011;24661;53.566;9.910;2022-10-20T17:16:31;11.23;;;5.73;;
38901;SDS011;24661;53.566;9.910;2022-10-20T17:18:59;9.30;;;4.90;;
38901;SDS011;24661;53.566;9.910;2022-10-20T17:21:26;8.10;;;5.07;;
38901;SDS011;24661;53.566;9.910;2022-10-20T17:23:53;13.30;;;5.83;;
38901;SDS011;24661;53.566;9.910;2022-10-20T17:26:19;8.80;;;5.30;;
38901;SDS011;24661;53.566;9.910;2022-10-20T17:28:47;10.40;;;5.50;;
38901;SDS011;24661;53.566;9.910;2022-10-20T17:31:14;6.77;;;4.43;;
38901;SDS011;24661;53.566;9.910;2022-10-20T17:33:41;7.87;;;5.43;;
38901;SDS011;24661;53.566;9.910;2022-10-20T17:36:08;8.10;;;5.37;;
38901;SDS011;24661;53.566;9.910;2022-10-20T17:38:36;7.80;;;4.90;;